Abergele, United Kingdom
Current Conditions -  °F | °C
As of 8:50 PM on Wednesday 26 Nov 2014 (Local Time) from EGNR Reporting Station
Haze Haze  
Wind Chill: 45°   Ceiling: 2300
Heat Index: 45°   Visibility: 2.8mi
Dew Point: 45°   Wind: 2mph
Humidity: 100%   Direction: 300°WNW
Pressure: 29.8"   Gusts: NA
Location:  53.28°N, 3.58°W
Report Text: EGNR 262050Z 30002KT 4500 BR SCT017 BKN023 07/07 Q1009
Loading
Personal Weather Stations






























Interactive Weather Map New forecast layout! Learn more

10-Day Weather Forecast

Advertisements
Track Severe Weather on mobile